MMZC/ZCL METAR and TAF weather

Enter ICAO airport designator
Station Type Date Time Source
MMZC METAR 2020/09/26 23:40 UTC NOAA

MMZC 262340Z 36005KT 10SM SCT020 BKN070 24/06 A3019 RMK 8/530


Station Type Date Time Source
MMZC Decoded METAR 2020/09/26 23:40 UTC NOAA

Zacatecas Airport, Mexico (MMZC) 22-54N 102-41W
Sep 26, 2020 - 07:40 PM EDT / 2020.09.26 2340 UTC
Wind: from the N (360 degrees) at 6 MPH (5 KT):0
Visibility: 10 mile(s):0
Sky conditions: mostly cloudy
Temperature: 75 F (24 C)
Dew Point: 42 F (6 C)
Relative Humidity: 31%
Pressure (altimeter): 30.19 in. Hg (1022 hPa)
ob: MMZC 262340Z 36005KT 10SM SCT020 BKN070 24/06 A3019 RMK 8/530
cycle: 23

Station Type Date Time Source
MMZC TAF 2020/09/26 19:09 UTC NOAA

TAF
AMD MMZC 261901Z 2619/2724 04008KT P6SM BKN020 TX25/2621Z TN10/2712Z
FM270300 32005KT P6SM SCT100
FM271700 04006KT P6SM SKC
BECMG 2718/2719 03012KT

Example: see airport list